Time;durP1;ratioP1;P1;durP2;ratioP2;P2;SDS_P1;SDS_P2;PMS_P1;PMS_P2;Temp;Humidity;BMP_temperature;BMP_pressure;BME280_temperature;BME280_humidity;BME280_pressure;Samples;Min_cycle;Max_cycle;Signal;HPM_P1;HPM_P2
2021/07/05 00:02:05;;;;;;;9.90;3.35;;;15.10;99.90;;;;;;5013490;28;20482;-76
2021/07/05 00:04:30;;;;;;;7.80;3.55;;;15.10;99.90;;;;;;5027252;28;20037;-76
2021/07/05 00:06:56;;;;;;;6.85;3.42;;;15.20;99.90;;;;;;4996045;28;20029;-76
2021/07/05 00:09:21;;;;;;;7.30;3.70;;;15.20;99.90;;;;;;5009366;28;20398;-74
2021/07/05 00:11:47;;;;;;;9.15;3.25;;;15.40;99.90;;;;;;5011080;28;20391;-74
2021/07/05 00:14:14;;;;;;;6.95;3.75;;;15.50;99.90;;;;;;5014844;28;20517;-75
2021/07/05 00:16:39;;;;;;;9.82;4.38;;;15.60;99.90;;;;;;5004011;28;20026;-75
2021/07/05 00:19:05;;;;;;;8.93;4.72;;;15.60;99.90;;;;;;5003043;28;20038;-75
2021/07/05 00:21:31;;;;;;;6.80;4.20;;;15.70;99.90;;;;;;5013115;28;20387;-74
2021/07/05 00:23:56;;;;;;;7.97;4.47;;;15.80;99.90;;;;;;5013046;28;20364;-75
2021/07/05 00:26:22;;;;;;;9.32;4.85;;;15.80;99.90;;;;;;4998185;28;20494;-75
2021/07/05 00:28:48;;;;;;;10.85;4.47;;;15.90;99.90;;;;;;4994908;28;20026;-75
2021/07/05 00:31:13;;;;;;;9.00;4.35;;;15.90;99.90;;;;;;4998669;28;20029;-75
2021/07/05 00:33:39;;;;;;;5.97;3.70;;;16.00;99.90;;;;;;5016758;28;20026;-76
2021/07/05 00:36:06;;;;;;;8.57;4.47;;;16.00;99.90;;;;;;5012905;28;20026;-77
2021/07/05 00:38:32;;;;;;;7.50;4.07;;;16.10;99.90;;;;;;5010895;28;20387;-77
2021/07/05 00:40:58;;;;;;;5.45;3.42;;;16.20;99.90;;;;;;5014063;28;20029;-77
2021/07/05 00:43:24;;;;;;;4.47;2.67;;;16.20;99.90;;;;;;5014125;28;20022;-77
2021/07/05 00:45:49;;;;;;;7.00;3.60;;;16.20;99.90;;;;;;5014398;28;20030;-77
2021/07/05 00:48:15;;;;;;;4.97;3.30;;;16.20;99.90;;;;;;5012663;28;20438;-77
2021/07/05 00:50:41;;;;;;;3.95;2.83;;;16.20;99.90;;;;;;4999541;28;20018;-79
2021/07/05 00:53:06;;;;;;;6.13;2.78;;;16.20;99.90;;;;;;5005238;28;20058;-76
2021/07/05 00:55:33;;;;;;;4.28;2.78;;;16.20;99.90;;;;;;4994532;28;20149;-76
2021/07/05 00:57:59;;;;;;;6.40;2.72;;;16.20;99.90;;;;;;4994813;28;20542;-77
2021/07/05 01:00:27;;;;;;;5.20;3.10;;;16.20;99.90;;;;;;5011264;28;20026;-75
2021/07/05 01:02:53;;;;;;;5.97;2.90;;;16.20;99.90;;;;;;4995974;28;20033;-75
2021/07/05 01:05:20;;;;;;;4.63;2.78;;;16.20;99.90;;;;;;4994348;28;20106;-75
2021/07/05 01:07:46;;;;;;;5.55;3.05;;;16.20;99.90;;;;;;4999908;28;20017;-75
2021/07/05 01:10:14;;;;;;;4.50;2.50;;;16.20;99.90;;;;;;5001146;28;20045;-76
2021/07/05 01:12:40;;;;;;;3.80;2.50;;;16.10;99.90;;;;;;5013887;28;20030;-75
2021/07/05 01:15:12;;;;;;;4.30;2.88;;;16.10;99.90;;;;;;5012515;28;20285;-75
2021/07/05 01:17:39;;;;;;;6.82;3.20;;;16.10;99.90;;;;;;5013351;28;20033;-74
2021/07/05 01:20:05;;;;;;;6.03;2.85;;;16.10;99.90;;;;;;4998603;28;20097;-75
2021/07/05 01:22:31;;;;;;;5.63;3.13;;;16.10;99.90;;;;;;4992756;28;20088;-75
2021/07/05 01:24:57;;;;;;;6.60;3.28;;;16.20;99.90;;;;;;4994323;28;20472;-75
2021/07/05 01:27:23;;;;;;;7.35;3.10;;;16.10;99.90;;;;;;4994019;28;20027;-75
2021/07/05 01:29:50;;;;;;;4.53;2.75;;;16.10;99.90;;;;;;4994007;28;20121;-75
2021/07/05 01:32:15;;;;;;;4.90;2.85;;;16.10;99.90;;;;;;5005206;28;20135;-75
2021/07/05 01:34:41;;;;;;;7.68;3.00;;;16.10;99.90;;;;;;5012010;28;20034;-75
2021/07/05 01:37:08;;;;;;;5.60;2.45;;;16.10;99.90;;;;;;5012220;28;20030;-75
2021/07/05 01:39:35;;;;;;;3.88;2.53;;;16.10;99.90;;;;;;4993822;28;20031;-75
2021/07/05 01:42:00;;;;;;;5.43;3.65;;;16.10;99.90;;;;;;4993856;28;20031;-75
2021/07/05 01:44:26;;;;;;;3.92;2.80;;;16.10;99.90;;;;;;4993819;28;20391;-75
2021/07/05 01:46:52;;;;;;;5.50;3.17;;;16.20;99.90;;;;;;4992912;28;20018;-75
2021/07/05 01:49:17;;;;;;;6.95;3.60;;;16.20;99.90;;;;;;5006182;28;20037;-75
2021/07/05 01:51:43;;;;;;;5.80;3.10;;;16.20;99.90;;;;;;5009799;28;20471;-76
2021/07/05 01:54:13;;;;;;;4.95;3.05;;;16.20;99.90;;;;;;4992578;28;20093;-75
2021/07/05 01:56:39;;;;;;;8.45;3.63;;;16.20;99.90;;;;;;4994185;28;20073;-75
2021/07/05 01:59:04;;;;;;;4.75;3.22;;;16.20;99.90;;;;;;4993800;28;20030;-75
2021/07/05 02:01:30;;;;;;;11.10;3.97;;;16.20;99.90;;;;;;5000891;28;20026;-76
2021/07/05 02:03:56;;;;;;;8.07;3.80;;;16.20;99.90;;;;;;5017576;28;20021;-75
2021/07/05 02:06:22;;;;;;;6.53;4.05;;;16.20;99.90;;;;;;5003831;28;20041;-76
2021/07/05 02:08:48;;;;;;;7.88;3.17;;;16.20;99.90;;;;;;5004787;28;20476;-75
2021/07/05 02:11:13;;;;;;;5.25;3.20;;;16.20;99.90;;;;;;4997310;28;20033;-75
2021/07/05 02:13:39;;;;;;;6.18;3.28;;;16.20;99.90;;;;;;5017445;28;20029;-75
2021/07/05 02:16:05;;;;;;;4.93;2.75;;;16.30;99.90;;;;;;5002998;28;20076;-75
2021/07/05 02:18:32;;;;;;;4.32;2.75;;;16.30;99.90;;;;;;4997342;28;20023;-75
2021/07/05 02:21:01;;;;;;;6.35;2.53;;;16.30;99.90;;;;;;4997292;28;20387;-75
2021/07/05 02:23:27;;;;;;;6.68;1.98;;;16.30;99.90;;;;;;4997337;28;20026;-74
2021/07/05 02:25:52;;;;;;;7.95;1.70;;;16.20;99.90;;;;;;5002964;28;20105;-79
2021/07/05 02:28:21;;;;;;;4.22;1.02;;;16.20;99.90;;;;;;5014238;28;20125;-78
2021/07/05 02:30:50;;;;;;;10.15;1.75;;;16.20;99.90;;;;;;5013067;28;20053;-79
2021/07/05 02:33:22;;;;;;;9.02;0.88;;;16.10;99.90;;;;;;5015114;28;20026;-79
2021/07/05 02:35:48;;;;;;;5.20;1.73;;;16.10;99.90;;;;;;5024096;28;20030;-78
2021/07/05 02:38:15;;;;;;;3.58;1.50;;;16.00;99.90;;;;;;5022937;28;20026;-79
2021/07/05 02:40:44;;;;;;;6.50;1.15;;;16.00;99.90;;;;;;5024279;28;20029;-78
2021/07/05 02:43:11;;;;;;;6.18;0.90;;;16.00;99.90;;;;;;5020392;28;20467;-77
2021/07/05 02:45:38;;;;;;;4.95;0.38;;;16.00;99.90;;;;;;5016079;28;20029;-78
2021/07/05 02:48:08;;;;;;;4.90;0.75;;;15.90;99.90;;;;;;5016590;28;20076;-77
2021/07/05 02:50:35;;;;;;;7.05;0.43;;;15.90;99.90;;;;;;5014020;28;20479;-79
2021/07/05 02:53:02;;;;;;;3.75;0.25;;;15.90;99.90;;;;;;5025969;28;20014;-79
2021/07/05 02:55:28;;;;;;;4.30;0.70;;;15.90;99.90;;;;;;5011959;28;20034;-78
2021/07/05 02:57:54;;;;;;;5.93;0.25;;;15.90;99.90;;;;;;5024248;28;20053;-79
2021/07/05 03:00:27;;;;;;;6.40;0.57;;;15.90;99.90;;;;;;5014336;28;20049;-79
2021/07/05 03:02:53;;;;;;;25.83;1.27;;;15.80;99.90;;;;;;5014117;28;20061;-79
2021/07/05 03:05:21;;;;;;;2.97;0.50;;;15.80;99.90;;;;;;4998531;28;20033;-77
2021/07/05 03:07:46;;;;;;;3.53;0.30;;;15.70;99.90;;;;;;5010899;28;20026;-79
2021/07/05 03:10:16;;;;;;;7.20;0.93;;;15.70;99.90;;;;;;5021682;28;20099;-79
2021/07/05 03:12:43;;;;;;;5.82;0.43;;;15.60;99.90;;;;;;5026521;28;20061;-78
2021/07/05 03:15:10;;;;;;;7.75;0.63;;;15.60;99.90;;;;;;5020401;28;20065;-77
2021/07/05 03:17:37;;;;;;;2.08;0.40;;;15.50;99.90;;;;;;5006725;28;20565;-78
2021/07/05 03:20:08;;;;;;;8.75;1.30;;;15.50;99.90;;;;;;4997587;28;20018;-78
2021/07/05 03:22:34;;;;;;;5.95;0.88;;;15.40;99.90;;;;;;5006818;28;20029;-78
2021/07/05 03:25:00;;;;;;;7.00;0.40;;;15.40;99.90;;;;;;5026178;28;20030;-78
2021/07/05 03:27:27;;;;;;;5.50;1.38;;;15.40;99.90;;;;;;5013542;28;20039;-78
2021/07/05 03:29:56;;;;;;;6.50;0.60;;;15.30;99.90;;;;;;5011681;28;20022;-78
2021/07/05 03:32:22;;;;;;;4.28;0.40;;;15.30;99.90;;;;;;5010833;28;20026;-78
2021/07/05 03:34:47;;;;;;;5.35;0.57;;;15.30;99.90;;;;;;5009863;28;20196;-79
2021/07/05 03:37:14;;;;;;;5.05;0.30;;;15.30;99.90;;;;;;5016743;28;20022;-78
2021/07/05 03:39:39;;;;;;;10.30;1.13;;;15.30;99.90;;;;;;5016223;28;20029;-79
2021/07/05 03:42:05;;;;;;;5.22;0.40;;;15.30;99.90;;;;;;5008071;28;20027;-79
2021/07/05 03:44:31;;;;;;;4.45;1.05;;;15.30;99.90;;;;;;5010349;28;20077;-78
2021/07/05 03:46:56;;;;;;;5.18;0.20;;;15.30;99.90;;;;;;5011388;28;20383;-78
2021/07/05 03:49:22;;;;;;;2.50;0.32;;;15.30;99.90;;;;;;5016885;28;20053;-79
2021/07/05 03:51:48;;;;;;;5.25;0.30;;;15.30;99.90;;;;;;5018185;28;20033;-78
2021/07/05 03:54:15;;;;;;;5.75;0.20;;;15.30;99.90;;;;;;5011050;28;20025;-79
2021/07/05 03:56:41;;;;;;;6.15;0.73;;;15.20;99.90;;;;;;5009516;28;20488;-78
2021/07/05 03:59:07;;;;;;;4.82;0.73;;;15.20;99.90;;;;;;5004760;28;20442;-79
2021/07/05 04:01:32;;;;;;;7.25;0.40;;;15.20;99.90;;;;;;5005836;28;20031;-78
2021/07/05 04:03:58;;;;;;;6.35;0.40;;;15.20;99.90;;;;;;5000820;28;20026;-78
2021/07/05 04:06:24;;;;;;;3.85;0.50;;;15.20;99.90;;;;;;5002352;28;20503;-78
2021/07/05 04:08:50;;;;;;;3.95;0.98;;;15.20;99.90;;;;;;5002715;28;20030;-79
2021/07/05 04:11:16;;;;;;;5.55;0.60;;;15.20;99.90;;;;;;4997731;28;20057;-78
2021/07/05 04:13:41;;;;;;;5.43;0.52;;;15.20;99.90;;;;;;5003899;28;20022;-78
2021/07/05 04:16:07;;;;;;;5.90;1.27;;;15.20;99.90;;;;;;5007459;28;20030;-78
2021/07/05 04:18:33;;;;;;;3.90;0.60;;;15.60;99.90;;;;;;5011806;28;20044;-79
2021/07/05 04:20:59;;;;;;;6.15;0.85;;;15.20;99.90;;;;;;5024755;28;20022;-79
2021/07/05 04:23:24;;;;;;;2.88;0.45;;;15.30;99.90;;;;;;5027328;28;20030;-78
2021/07/05 04:25:52;;;;;;;2.85;0.60;;;15.30;99.90;;;;;;5006418;28;20032;-78
2021/07/05 04:28:18;;;;;;;4.22;0.65;;;15.20;99.90;;;;;;5008996;28;20069;-79
2021/07/05 04:30:44;;;;;;;3.63;0.30;;;15.20;99.90;;;;;;5018639;28;20022;-79
2021/07/05 04:33:09;;;;;;;2.85;0.30;;;15.20;99.90;;;;;;5013656;28;20036;-79
2021/07/05 04:35:35;;;;;;;3.20;0.70;;;15.20;99.90;;;;;;5030221;28;20030;-79
2021/07/05 04:38:01;;;;;;;6.78;0.90;;;15.20;99.90;;;;;;5026918;28;20021;-78
2021/07/05 04:40:30;;;;;;;4.70;1.00;;;15.10;99.90;;;;;;5010196;28;20022;-79
2021/07/05 04:42:56;;;;;;;5.03;0.75;;;15.10;99.90;;;;;;5011812;28;20447;-79
2021/07/05 04:45:26;;;;;;;4.18;0.98;;;15.10;99.90;;;;;;5015314;28;20014;-79
2021/07/05 04:47:51;;;;;;;3.10;0.65;;;15.10;99.90;;;;;;5013140;28;20022;-80
2021/07/05 04:50:18;;;;;;;7.00;1.13;;;16.80;99.90;;;;;;5031402;28;20050;-79
2021/07/05 04:52:44;;;;;;;8.63;1.10;;;15.10;99.90;;;;;;5031264;28;20547;-79
2021/07/05 04:55:12;;;;;;;6.25;1.67;;;15.10;99.90;;;;;;5015981;28;20037;-78
2021/07/05 04:57:40;;;;;;;3.65;0.82;;;15.10;99.90;;;;;;5008552;28;20026;-77
2021/07/05 05:00:26;;;;;;;6.40;1.20;;;15.10;99.90;;;;;;5011909;28;20022;-77
2021/07/05 05:02:52;;;;;;;7.60;1.48;;;15.10;99.90;;;;;;5005278;28;20101;-78
2021/07/05 05:05:21;;;;;;;4.50;0.63;;;15.20;99.90;;;;;;5007395;28;20057;-78
2021/07/05 05:07:48;;;;;;;7.85;0.52;;;15.20;99.90;;;;;;5009631;28;20034;-77
2021/07/05 05:10:14;;;;;;;8.52;1.08;;;15.20;99.90;;;;;;5005091;28;20498;-77
2021/07/05 05:12:40;;;;;;;2.58;0.88;;;15.20;99.90;;;;;;5017174;28;20026;-77
2021/07/05 05:15:07;;;;;;;3.80;1.00;;;15.30;99.90;;;;;;5012622;28;20124;-79
2021/07/05 05:17:33;;;;;;;4.85;0.90;;;15.30;99.90;;;;;;5004004;28;20030;-78
2021/07/05 05:19:58;;;;;;;3.92;0.70;;;15.30;99.90;;;;;;5004667;28;20084;-78
2021/07/05 05:22:24;;;;;;;3.50;0.73;;;15.30;99.90;;;;;;5005895;28;20025;-78
2021/07/05 05:24:50;;;;;;;1.92;0.80;;;15.30;99.90;;;;;;5014177;28;20026;-79
2021/07/05 05:27:15;;;;;;;6.50;0.60;;;15.40;99.90;;;;;;5027133;28;20026;-78
2021/07/05 05:29:42;;;;;;;1.95;0.70;;;15.40;99.90;;;;;;5028188;28;20038;-79
2021/07/05 05:32:08;;;;;;;3.53;0.77;;;15.40;99.90;;;;;;5029995;28;20018;-80
2021/07/05 05:34:34;;;;;;;3.95;0.68;;;15.40;99.90;;;;;;5023444;28;20041;-79
2021/07/05 05:36:59;;;;;;;6.05;1.42;;;15.40;99.90;;;;;;5010450;28;20092;-79
2021/07/05 05:39:25;;;;;;;5.32;1.23;;;15.40;99.90;;;;;;5014493;28;20025;-79
2021/07/05 05:41:52;;;;;;;5.47;0.90;;;15.40;99.90;;;;;;5028465;28;20034;-79
2021/07/05 05:44:17;;;;;;;4.15;1.63;;;15.40;99.90;;;;;;5013944;28;20041;-79
2021/07/05 05:46:43;;;;;;;4.18;1.23;;;15.40;99.90;;;;;;5024757;28;20026;-78
2021/07/05 05:49:08;;;;;;;7.10;0.68;;;15.40;99.90;;;;;;5027404;28;20030;-78
2021/07/05 05:51:36;;;;;;;5.32;0.80;;;15.40;99.90;;;;;;5025518;28;20038;-78
2021/07/05 05:54:04;;;;;;;9.93;1.50;;;15.40;99.90;;;;;;5025377;28;20027;-79
2021/07/05 05:56:33;;;;;;;8.30;1.35;;;15.30;99.90;;;;;;5027165;28;20038;-81
2021/07/05 05:59:08;;;;;;;5.78;1.30;;;15.30;99.90;;;;;;5021865;28;20037;-77
2021/07/05 06:01:36;;;;;;;6.50;1.55;;;15.30;99.90;;;;;;5012612;28;20026;-77
2021/07/05 06:04:03;;;;;;;6.70;1.83;;;15.20;99.90;;;;;;5014468;28;20092;-78
2021/07/05 06:06:29;;;;;;;4.20;1.02;;;15.30;99.90;;;;;;5007217;28;20022;-78
2021/07/05 06:08:55;;;;;;;7.85;2.00;;;15.30;99.90;;;;;;4996826;28;20113;-78
2021/07/05 06:11:20;;;;;;;4.95;1.98;;;15.30;99.90;;;;;;4993955;28;20038;-77
2021/07/05 06:13:48;;;;;;;6.07;1.45;;;15.30;99.90;;;;;;5002229;28;20157;-79
2021/07/05 06:16:13;;;;;;;5.03;1.58;;;15.70;99.90;;;;;;5009649;28;20022;-77
2021/07/05 06:18:39;;;;;;;7.15;1.00;;;15.30;99.90;;;;;;5013374;28;20032;-76
2021/07/05 06:21:05;;;;;;;7.25;2.10;;;15.40;99.90;;;;;;5007438;28;20064;-77
2021/07/05 06:23:30;;;;;;;5.93;1.73;;;15.40;99.90;;;;;;5000365;28;20515;-77
2021/07/05 06:25:58;;;;;;;6.28;0.93;;;15.50;99.90;;;;;;4993702;28;20027;-78
2021/07/05 06:28:25;;;;;;;3.13;1.40;;;15.50;99.90;;;;;;5001807;28;20481;-78
2021/07/05 06:30:51;;;;;;;8.05;1.80;;;15.60;99.90;;;;;;4993514;28;20479;-76
2021/07/05 06:33:19;;;;;;;9.95;1.83;;;15.80;99.90;;;;;;4993532;28;20037;-76
2021/07/05 06:35:46;;;;;;;6.47;2.05;;;15.80;99.90;;;;;;4993583;28;20069;-77
2021/07/05 06:38:13;;;;;;;10.73;1.65;;;16.00;99.90;;;;;;4993680;28;20022;-77
2021/07/05 06:40:40;;;;;;;14.55;2.30;;;16.30;99.90;;;;;;4993361;28;20113;-76
2021/07/05 06:43:06;;;;;;;7.05;2.22;;;16.50;99.90;;;;;;4993517;28;20018;-77
2021/07/05 06:45:33;;;;;;;5.97;1.23;;;16.70;99.90;;;;;;4993422;28;20027;-77
2021/07/05 06:48:00;;;;;;;8.13;2.15;;;16.80;99.90;;;;;;4995330;28;20560;-77
2021/07/05 06:50:27;;;;;;;8.32;1.67;;;16.80;99.90;;;;;;4995514;28;20124;-77
2021/07/05 06:52:53;;;;;;;8.57;2.25;;;17.00;99.90;;;;;;4995568;28;20027;-77
2021/07/05 06:55:20;;;;;;;12.20;2.13;;;17.10;99.90;;;;;;4997162;28;20032;-77
2021/07/05 06:57:46;;;;;;;9.90;1.95;;;17.10;99.90;;;;;;4998563;28;20041;-78
2021/07/05 07:00:14;;;;;;;4.55;1.45;;;17.10;99.90;;;;;;5007511;28;20411;-77
2021/07/05 07:02:41;;;;;;;;;;;17.20;99.90;;;;;;4997538;28;20031;-78
2021/07/05 07:05:10;;;;;;;5.40;1.42;;;17.10;99.90;;;;;;4997381;28;19968;-78
2021/07/05 07:07:38;;;;;;;7.20;1.45;;;17.20;99.90;;;;;;4996601;28;20026;-78
2021/07/05 07:10:05;;;;;;;5.35;1.77;;;17.30;99.90;;;;;;4995383;28;20034;-78
2021/07/05 07:12:31;;;;;;;6.82;1.65;;;17.30;99.90;;;;;;5006452;28;20032;-78
2021/07/05 07:14:56;;;;;;;9.55;1.73;;;17.10;99.90;;;;;;5005303;28;20037;-78
2021/07/05 07:17:33;;;;;;;16.17;4.35;;;17.10;99.90;;;;;;5008868;28;20030;-79
2021/07/05 07:19:59;;;;;;;7.40;1.90;;;17.10;99.90;;;;;;5006787;28;20034;-78
2021/07/05 07:22:25;;;;;;;11.50;1.75;;;17.10;99.90;;;;;;4996719;28;20065;-77
2021/07/05 07:24:50;;;;;;;13.57;2.97;;;17.10;99.90;;;;;;4998364;28;20431;-79
2021/07/05 07:27:16;;;;;;;13.27;1.30;;;17.10;99.90;;;;;;4996561;28;20097;-77
2021/07/05 07:29:41;;;;;;;10.98;1.70;;;17.10;99.90;;;;;;4997633;28;20121;-78
2021/07/05 07:32:07;;;;;;;7.68;1.80;;;17.00;99.90;;;;;;4996663;28;20124;-78
2021/07/05 07:34:33;;;;;;;9.90;1.08;;;17.00;99.90;;;;;;5000891;28;20546;-78
2021/07/05 07:37:03;;;;;;;4.60;1.38;;;17.00;99.90;;;;;;5020866;28;20100;-78
2021/07/05 07:39:41;;;;;;;7.20;1.35;;;17.00;99.90;;;;;;5008998;28;20026;-78
2021/07/05 07:42:07;;;;;;;4.18;0.98;;;17.20;99.90;;;;;;5004375;28;20077;-78
2021/07/05 07:44:34;;;;;;;6.63;0.70;;;17.40;99.90;;;;;;5010748;28;20075;-77
2021/07/05 07:47:03;;;;;;;5.72;1.63;;;17.50;99.90;;;;;;5010873;28;20111;-78
2021/07/05 07:49:30;;;;;;;8.85;1.20;;;17.60;99.90;;;;;;5008071;28;20048;-77
2021/07/05 07:52:01;;;;;;;6.38;1.65;;;17.70;99.90;;;;;;4994594;28;20026;-78
2021/07/05 07:54:27;;;;;;;11.85;1.92;;;17.60;99.90;;;;;;4999094;28;20083;-77
2021/07/05 07:56:53;;;;;;;5.30;1.25;;;17.60;99.90;;;;;;5014218;28;20033;-76
2021/07/05 07:59:20;;;;;;;5.45;1.05;;;17.60;99.90;;;;;;5005733;28;20026;-76
2021/07/05 08:01:46;;;;;;;12.50;1.25;;;17.60;99.90;;;;;;5001264;28;20030;-76
2021/07/05 08:04:11;;;;;;;6.55;1.13;;;17.70;99.90;;;;;;4997721;28;20022;-76
2021/07/05 08:06:37;;;;;;;4.78;1.08;;;17.80;99.90;;;;;;5008171;28;20383;-76
2021/07/05 08:09:05;;;;;;;3.78;1.27;;;17.90;99.90;;;;;;5014811;28;20509;-76
2021/07/05 08:11:32;;;;;;;6.60;1.40;;;18.00;99.90;;;;;;5019946;28;20037;-76
2021/07/05 08:13:59;;;;;;;5.55;0.88;;;18.20;99.90;;;;;;5028267;28;20030;-77
2021/07/05 08:16:25;;;;;;;4.93;1.63;;;18.20;99.90;;;;;;5014878;28;20029;-77
2021/07/05 08:18:51;;;;;;;6.82;1.17;;;18.30;99.90;;;;;;5026098;28;20033;-77
2021/07/05 08:21:17;;;;;;;7.90;1.88;;;18.30;99.90;;;;;;5034551;28;20029;-77
2021/07/05 08:23:43;;;;;;;8.18;1.58;;;18.30;99.90;;;;;;5034564;28;20026;-77
2021/07/05 08:26:09;;;;;;;8.15;1.75;;;18.20;99.90;;;;;;5027969;28;20064;-77
2021/07/05 08:28:34;;;;;;;4.45;1.48;;;18.10;99.90;;;;;;5031956;28;20053;-76
2021/07/05 08:31:01;;;;;;;7.22;1.77;;;18.10;99.90;;;;;;5015770;28;20498;-76
2021/07/05 08:33:28;;;;;;;6.85;1.95;;;18.20;99.90;;;;;;5014666;28;20418;-76
2021/07/05 08:35:54;;;;;;;7.47;1.70;;;18.30;99.90;;;;;;5013351;28;20018;-77
2021/07/05 08:38:19;;;;;;;3.70;1.55;;;18.30;99.90;;;;;;5014842;28;20097;-78
2021/07/05 08:40:45;;;;;;;8.55;2.75;;;18.30;99.90;;;;;;5014613;28;20053;-77
2021/07/05 08:43:11;;;;;;;6.78;2.53;;;18.30;99.90;;;;;;5013645;28;20053;-77
2021/07/05 08:45:39;;;;;;;6.78;2.38;;;18.10;99.90;;;;;;5013369;28;20024;-78
2021/07/05 08:48:07;;;;;;;4.47;2.22;;;18.20;99.90;;;;;;5014437;28;20057;-78
2021/07/05 08:50:33;;;;;;;3.80;1.88;;;18.50;99.90;;;;;;5013026;28;20022;-77
2021/07/05 08:52:58;;;;;;;12.52;2.67;;;18.70;99.90;;;;;;5014443;28;20026;-77
2021/07/05 08:55:27;;;;;;;5.90;2.67;;;18.90;99.90;;;;;;5012986;28;20387;-77
2021/07/05 08:57:53;;;;;;;6.30;2.40;;;19.20;99.90;;;;;;5014785;28;20097;-77
2021/07/05 09:00:20;;;;;;;7.85;2.10;;;19.50;99.90;;;;;;5013553;28;20403;-79
2021/07/05 09:02:46;;;;;;;8.82;2.88;;;19.80;99.90;;;;;;5016133;28;20104;-79
2021/07/05 09:05:13;;;;;;;10.00;2.83;;;20.00;99.90;;;;;;5015287;28;20467;-78
2021/07/05 09:08:03;;;;;;;9.48;2.38;;;20.10;99.90;;;;;;5016837;28;20057;-79
2021/07/05 09:13:21;;;;;;;8.02;2.13;;;20.20;99.90;;;;;;5033278;28;20050;-74
2021/07/05 09:15:58;;;;;;;7.57;1.95;;;20.20;99.90;;;;;;5034169;28;20052;-75
2021/07/05 09:18:38;;;;;;;8.52;2.70;;;20.20;99.90;;;;;;5032829;28;20482;-74
2021/07/05 09:21:20;;;;;;;5.65;2.05;;;20.10;99.90;;;;;;5016284;28;20025;-76
2021/07/05 09:23:53;;;;;;;6.10;2.15;;;20.20;99.90;;;;;;5034821;28;20025;-75
2021/07/05 09:26:23;;;;;;;8.07;2.45;;;20.30;99.90;;;;;;5016569;28;20021;-74
2021/07/05 09:28:52;;;;;;;8.80;2.70;;;20.40;99.90;;;;;;5034506;28;20502;-74
2021/07/05 09:31:33;;;;;;;8.15;2.10;;;20.40;99.90;;;;;;5016676;28;20383;-75
2021/07/05 09:33:59;;;;;;;7.45;1.75;;;20.50;99.90;;;;;;5016332;28;20430;-75
2021/07/05 09:36:26;;;;;;;8.18;1.98;;;20.60;99.90;;;;;;5016136;28;20022;-74
2021/07/05 09:38:52;;;;;;;7.53;3.05;;;20.60;99.90;;;;;;5033966;28;20028;-74
2021/07/05 09:41:33;;;;;;;2.95;1.75;;;20.60;99.90;;;;;;5016091;28;20022;-74
2021/07/05 09:44:11;;;;;;;4.28;1.88;;;20.70;99.90;;;;;;5016002;28;20021;-74
2021/07/05 09:46:52;;;;;;;5.20;1.42;;;20.80;99.90;;;;;;5032589;28;20030;-75
2021/07/05 09:49:31;;;;;;;5.60;1.75;;;21.10;99.90;;;;;;5016113;28;20030;-75
2021/07/05 09:52:16;;;;;;;5.05;0.93;;;21.30;99.90;;;;;;5033933;28;20136;-74
2021/07/05 09:54:50;;;;;;;6.82;1.63;;;21.20;99.90;;;;;;5033422;28;20060;-74
2021/07/05 09:57:28;;;;;;;5.22;1.52;;;21.10;99.90;;;;;;5015896;28;20061;-74
2021/07/05 10:00:11;;;;;;;3.08;1.00;;;21.10;99.90;;;;;;5033739;28;20028;-74
2021/07/05 10:02:52;;;;;;;3.80;1.05;;;21.10;99.90;;;;;;5033278;28;20017;-74
2021/07/05 10:05:18;;;;;;;3.35;1.17;;;21.00;99.90;;;;;;5033324;28;20505;-74
2021/07/05 10:08:04;;;;;;;5.00;1.63;;;21.10;99.90;;;;;;5033041;28;20021;-74
2021/07/05 10:10:30;;;;;;;5.05;2.00;;;20.70;99.90;;;;;;5033191;28;20025;-74
2021/07/05 10:12:58;;;;;;;4.47;1.17;;;20.80;99.90;;;;;;5033209;28;20112;-74
2021/07/05 10:15:26;;;;;;;4.63;1.75;;;20.90;99.90;;;;;;5033509;28;20488;-75
2021/07/05 10:17:54;;;;;;;4.95;1.90;;;21.00;99.90;;;;;;5033400;28;20030;-75
2021/07/05 10:20:28;;;;;;;10.77;1.77;;;21.40;99.90;;;;;;5033064;28;20029;-74
2021/07/05 10:23:00;;;;;;;5.88;1.30;;;21.00;99.90;;;;;;5036302;28;20029;-74
2021/07/05 10:25:30;;;;;;;4.97;1.75;;;21.10;99.90;;;;;;5035878;28;20025;-74
2021/07/05 10:27:56;;;;;;;5.15;1.98;;;21.20;99.90;;;;;;5036947;28;20017;-74
2021/07/05 10:30:22;;;;;;;6.10;1.52;;;21.20;99.90;;;;;;5036744;28;20524;-74
2021/07/05 10:32:49;;;;;;;5.80;2.13;;;21.30;99.90;;;;;;5037329;28;20064;-75
2021/07/05 10:35:21;;;;;;;5.20;1.38;;;21.20;99.90;;;;;;5036813;28;20029;-74
2021/07/05 10:38:13;;;;;;;5.82;0.98;;;21.40;99.90;;;;;;5037254;28;20037;-75
2021/07/05 10:40:46;;;;;;;7.07;0.98;;;21.40;99.90;;;;;;5018886;28;20025;-75
2021/07/05 10:43:36;;;;;;;4.65;1.23;;;21.40;99.90;;;;;;5036659;28;20021;-74
2021/07/05 10:46:02;;;;;;;6.97;1.40;;;21.40;99.90;;;;;;5028567;28;20036;-75
2021/07/05 10:48:30;;;;;;;6.60;0.93;;;21.30;99.90;;;;;;5036610;28;20018;-74
2021/07/05 10:51:01;;;;;;;2.95;0.65;;;21.10;99.90;;;;;;5035171;28;20498;-74
2021/07/05 10:53:33;;;;;;;3.80;0.90;;;21.20;99.90;;;;;;5035226;28;20030;-74
2021/07/05 10:56:01;;;;;;;6.78;1.38;;;21.10;99.90;;;;;;5036373;28;20087;-75
2021/07/05 10:58:31;;;;;;;7.50;1.30;;;20.80;99.90;;;;;;5036844;28;20053;-75
2021/07/05 11:01:03;;;;;;;2.60;0.98;;;20.70;99.90;;;;;;5018474;28;20556;-74
2021/07/05 11:03:38;;;;;;;3.25;0.88;;;20.50;99.90;;;;;;5036235;28;20067;-74
2021/07/05 11:06:11;;;;;;;6.15;1.35;;;20.50;99.90;;;;;;5035170;28;20056;-74
2021/07/05 11:08:49;;;;;;;3.97;1.10;;;20.60;99.90;;;;;;5036496;28;20104;-74
2021/07/05 11:11:27;;;;;;;3.08;0.98;;;20.70;99.90;;;;;;5035960;28;20367;-74
2021/07/05 11:14:23;;;;;;;4.68;0.68;;;20.90;99.90;;;;;;5036632;28;20013;-74
2021/07/05 11:17:01;;;;;;;3.70;0.70;;;21.10;99.90;;;;;;5018334;28;20424;-74
2021/07/05 11:19:34;;;;;;;4.88;1.20;;;21.20;99.90;;;;;;5018159;28;20060;-74
2021/07/05 11:22:10;;;;;;;4.60;0.73;;;21.40;99.90;;;;;;5036054;28;20091;-74
2021/07/05 11:24:43;;;;;;;2.83;0.80;;;21.50;99.90;;;;;;5035817;28;20056;-74
2021/07/05 11:28:03;;;;;;;3.03;1.20;;;21.40;99.90;;;;;;5018094;28;20018;-74
2021/07/05 11:30:41;;;;;;;6.18;1.85;;;21.30;99.90;;;;;;5032567;28;20042;-75
2021/07/05 11:33:06;;;;;;;5.23;1.10;;;21.20;99.90;;;;;;5035485;28;20030;-74
2021/07/05 11:35:39;;;;;;;8.40;1.20;;;21.30;99.90;;;;;;5035841;28;20528;-74
2021/07/05 11:38:10;;;;;;;4.05;1.17;;;21.30;99.90;;;;;;5036035;28;20474;-74
2021/07/05 11:41:05;;;;;;;5.32;0.95;;;21.30;99.90;;;;;;5035991;28;20100;-74
2021/07/05 11:44:03;;;;;;;4.40;0.70;;;21.40;99.90;;;;;;5027184;28;20481;-75
2021/07/05 11:46:28;;;;;;;3.13;1.13;;;21.40;99.90;;;;;;5034087;28;20112;-75
2021/07/05 11:48:58;;;;;;;3.20;1.20;;;21.40;99.90;;;;;;5036321;28;20060;-76
2021/07/05 11:51:39;;;;;;;7.03;1.65;;;21.40;99.90;;;;;;5035197;28;20026;-76
2021/07/05 11:54:08;;;;;;;3.60;0.60;;;21.00;99.90;;;;;;5035960;28;20036;-76
2021/07/05 11:56:35;;;;;;;4.80;0.77;;;20.70;99.90;;;;;;5035244;28;20028;-76
2021/07/05 11:59:04;;;;;;;2.97;0.70;;;20.60;99.90;;;;;;5035049;28;20026;-76
2021/07/05 12:01:30;;;;;;;;;;;20.60;99.90;;;;;;5035427;28;20021;-75
2021/07/05 12:03:58;;;;;;;3.85;0.40;;;20.40;99.90;;;;;;5035906;28;20247;-76
2021/07/05 12:06:24;;;;;;;4.90;0.70;;;20.50;99.90;;;;;;5033690;28;20052;-76
2021/07/05 12:08:54;;;;;;;2.30;0.45;;;20.50;99.90;;;;;;5035046;28;20075;-76
2021/07/05 12:11:35;;;;;;;5.80;0.50;;;20.50;99.90;;;;;;5033406;28;20494;-76
2021/07/05 12:14:08;;;;;;;1.85;0.50;;;20.20;99.90;;;;;;5034868;28;20033;-76
2021/07/05 12:16:34;;;;;;;3.30;0.63;;;20.00;99.90;;;;;;5017041;28;20032;-75
2021/07/05 12:19:02;;;;;;;2.15;0.50;;;19.90;99.90;;;;;;5034753;28;20031;-76
2021/07/05 12:21:36;;;;;;;2.17;0.30;;;19.80;99.90;;;;;;5034729;28;20026;-76
2021/07/05 12:24:10;;;;;;;0.50;0.30;;;19.60;99.90;;;;;;5034983;28;20096;-75
2021/07/05 12:26:41;;;;;;;2.75;0.40;;;19.50;99.90;;;;;;5034711;28;20027;-75
2021/07/05 12:29:27;;;;;;;1.70;0.40;;;19.60;99.90;;;;;;5034544;28;20018;-76
2021/07/05 12:32:18;;;;;;;2.10;0.85;;;19.80;99.90;;;;;;5016750;28;20040;-75
2021/07/05 12:34:54;;;;;;;3.53;0.32;;;19.90;99.90;;;;;;5034561;28;20025;-75
2021/07/05 12:37:22;;;;;;;0.50;0.17;;;20.30;99.90;;;;;;5033064;28;20479;-75
2021/07/05 12:39:52;;;;;;;3.30;0.30;;;20.70;99.90;;;;;;5034055;28;20029;-75
2021/07/05 12:42:34;;;;;;;0.52;0.00;;;21.30;99.90;;;;;;5034492;28;20021;-76
2021/07/05 12:45:03;;;;;;;3.03;0.47;;;21.80;99.90;;;;;;5015784;28;20083;-75
2021/07/05 12:47:29;;;;;;;1.35;0.17;;;22.30;99.90;;;;;;5034318;28;20075;-75
2021/07/05 12:49:58;;;;;;;2.70;0.47;;;22.70;99.90;;;;;;5016160;28;20025;-75
2021/07/05 12:52:23;;;;;;;2.15;0.20;;;22.80;99.90;;;;;;5034027;28;20044;-75
2021/07/05 12:55:09;;;;;;;3.40;0.00;;;22.50;99.90;;;;;;5033981;28;20493;-75
2021/07/05 12:57:34;;;;;;;1.60;0.20;;;22.50;99.90;;;;;;5016248;28;20046;-76
2021/07/05 13:00:04;;;;;;;1.02;0.00;;;22.70;99.90;;;;;;5034408;28;20072;-76